Time;durP1;ratioP1;P1;durP2;ratioP2;P2;SDS_P1;SDS_P2;PMS_P1;PMS_P2;Temp;Humidity;BMP_temperature;BMP_pressure;BME280_temperature;BME280_humidity;BME280_pressure;Samples;Min_cycle;Max_cycle;Signal;HPM_P1;HPM_P2
2022/05/04 00:01:30;;;;;;;9.77;9.07;;;13.00;99.90;;;13.85;83.97;97805.31;5265322;28;20295;-56
2022/05/04 00:04:05;;;;;;;9.60;8.90;;;13.00;99.90;;;13.91;83.96;97814.19;5261983;28;20277;-55
2022/05/04 00:06:38;;;;;;;9.32;8.63;;;13.10;99.90;;;13.99;83.62;97814.47;5267101;28;20215;-55
2022/05/04 00:09:11;;;;;;;9.68;8.80;;;13.10;99.90;;;14.01;83.42;97812.88;5267298;28;20299;-56
2022/05/04 00:11:46;;;;;;;9.60;8.80;;;13.10;99.90;;;14.05;82.72;97804.50;5267856;28;20223;-56
2022/05/04 00:14:19;;;;;;;9.98;9.15;;;13.10;99.90;;;14.01;82.59;97812.00;5266590;28;20631;-56
2022/05/04 00:16:52;;;;;;;10.30;9.50;;;13.00;99.90;;;13.93;82.56;97807.38;5263689;28;20244;-53
2022/05/04 00:19:25;;;;;;;9.75;8.98;;;12.90;99.90;;;13.89;83.36;97808.09;5265365;28;20200;-51
2022/05/04 00:21:58;;;;;;;10.15;9.35;;;12.90;99.90;;;13.86;82.80;97807.09;5263100;28;20282;-53
2022/05/04 00:24:31;;;;;;;9.70;9.10;;;12.90;99.90;;;13.71;82.80;97807.31;5264698;28;20295;-55
2022/05/04 00:27:06;;;;;;;9.18;8.48;;;12.80;99.90;;;13.68;82.99;97802.03;5266236;28;20303;-54
2022/05/04 00:29:39;;;;;;;10.27;9.40;;;12.70;99.90;;;13.72;83.28;97809.03;5265810;28;20252;-54
2022/05/04 00:32:14;;;;;;;10.13;9.43;;;12.80;99.90;;;13.73;83.62;97811.69;5262139;28;20273;-57
2022/05/04 00:34:47;;;;;;;9.77;9.07;;;12.80;99.90;;;13.74;83.76;97804.88;5266662;28;20286;-53
2022/05/04 00:37:20;;;;;;;10.07;9.18;;;12.90;99.90;;;13.72;83.46;97819.31;5262272;28;20224;-53
2022/05/04 00:39:53;;;;;;;12.80;9.30;;;12.80;99.90;;;13.68;83.58;97807.16;5266396;28;20200;-56
2022/05/04 00:42:28;;;;;;;10.13;9.23;;;12.80;99.90;;;13.73;83.93;97805.66;5264789;28;20199;-56
2022/05/04 00:45:01;;;;;;;10.18;9.48;;;12.90;99.90;;;13.71;83.71;97807.31;5264852;28;20294;-51
2022/05/04 00:47:34;;;;;;;10.48;9.68;;;12.90;99.90;;;13.63;85.39;97804.38;5265944;28;20239;-55
2022/05/04 00:50:09;;;;;;;11.02;10.07;;;12.80;99.90;;;13.65;85.29;97801.88;5260774;28;20231;-51
2022/05/04 00:52:45;;;;;;;10.57;9.77;;;12.80;99.90;;;13.63;84.74;97811.22;5265768;28;20282;-53
2022/05/04 00:55:20;;;;;;;10.40;9.63;;;12.80;99.90;;;13.67;84.50;97810.53;5263482;28;20196;-52
2022/05/04 01:01:02;;;;;;;11.02;10.18;;;12.80;99.90;;;13.64;84.52;97812.97;5200265;28;20297;-53
2022/05/04 01:03:37;;;;;;;10.93;10.13;;;12.80;99.90;;;13.60;85.30;97817.09;5200071;28;20204;-52
2022/05/04 01:06:10;;;;;;;9.73;9.05;;;12.70;99.90;;;13.55;84.85;97823.69;5237676;28;20216;-54
2022/05/04 01:08:43;;;;;;;10.93;10.02;;;12.60;99.90;;;13.64;86.25;97818.97;5264963;28;20229;-51
2022/05/04 01:11:16;;;;;;;11.07;10.27;;;12.70;99.90;;;13.69;85.89;97814.06;5265595;28;20291;-57
2022/05/04 01:14:01;;;;;;;10.30;9.60;;;12.80;99.90;;;13.65;85.93;97813.03;5263718;28;20690;-52
2022/05/04 01:16:37;;;;;;;11.05;10.15;;;12.80;99.90;;;13.66;85.81;97811.34;5265188;28;20270;-53
2022/05/04 01:19:13;;;;;;;11.02;10.02;;;12.80;99.90;;;13.65;85.56;97812.13;5266244;28;20199;-52
2022/05/04 01:21:50;;;;;;;11.43;10.48;;;12.80;99.90;;;13.66;86.03;97808.78;5265875;28;20241;-54
2022/05/04 01:24:23;;;;;;;11.40;10.48;;;12.80;99.90;;;13.62;85.62;97805.22;5264946;28;20723;-52
2022/05/04 01:26:57;;;;;;;11.00;10.20;;;12.80;99.90;;;13.64;84.08;97805.25;5266408;28;20296;-54
2022/05/04 01:29:30;;;;;;;12.00;11.02;;;12.70;99.90;;;13.60;85.61;97813.66;5263739;28;20712;-55
2022/05/04 01:32:03;;;;;;;11.27;10.38;;;12.70;99.90;;;13.61;85.65;97817.97;5260421;28;20200;-55
2022/05/04 01:34:36;;;;;;;10.77;9.98;;;12.70;99.90;;;13.49;85.37;97819.16;5264050;28;20298;-53
2022/05/04 01:37:11;;;;;;;10.35;9.63;;;12.60;99.90;;;13.50;85.52;97818.34;5266297;28;20231;-56
2022/05/04 01:39:44;;;;;;;10.93;10.02;;;12.60;99.90;;;13.51;85.41;97817.56;5264969;28;20234;-55
2022/05/04 01:42:17;;;;;;;11.85;10.85;;;12.70;99.90;;;13.56;86.57;97814.31;5264541;28;20556;-53
2022/05/04 01:44:50;;;;;;;11.02;10.15;;;12.70;99.90;;;13.58;85.49;97808.44;5265571;28;20234;-54
2022/05/04 01:47:23;;;;;;;10.65;9.85;;;12.70;99.90;;;13.58;85.32;97815.25;5262903;28;20216;-53
2022/05/04 01:49:56;;;;;;;10.20;9.40;;;12.70;99.90;;;13.56;84.93;97812.63;5266015;28;20287;-54
2022/05/04 01:52:31;;;;;;;10.68;9.85;;;12.70;99.90;;;13.62;84.15;97809.44;5264364;28;20569;-55
2022/05/04 01:55:05;;;;;;;10.68;9.77;;;12.70;99.90;;;13.60;85.35;97806.81;5264547;28;20624;-52
2022/05/04 01:57:38;;;;;;;11.07;10.18;;;12.70;99.90;;;13.65;84.38;97805.34;5264820;28;20567;-52
2022/05/04 02:00:12;;;;;;;10.38;9.57;;;12.70;99.90;;;13.62;84.54;97806.88;5263448;28;20254;-52
2022/05/04 02:02:46;;;;;;;10.25;9.55;;;12.70;99.90;;;13.61;85.19;97806.00;5264302;28;20290;-52
2022/05/04 02:05:19;;;;;;;10.95;10.00;;;12.70;99.90;;;13.56;85.26;97801.47;5265167;28;20717;-52
2022/05/04 02:07:54;;;;;;;11.18;10.38;;;12.70;99.90;;;13.52;85.38;97811.59;5265197;28;20672;-54
2022/05/04 02:10:28;;;;;;;10.07;9.27;;;12.60;99.90;;;13.53;84.84;97807.34;5264222;28;20251;-55
2022/05/04 02:13:01;;;;;;;10.82;9.85;;;12.60;99.90;;;13.44;85.34;97818.06;5264686;28;20298;-52
2022/05/04 02:15:37;;;;;;;10.88;10.18;;;12.60;99.90;;;13.45;85.51;97812.16;5261961;28;20545;-54
2022/05/04 02:18:10;;;;;;;11.35;10.35;;;12.60;99.90;;;13.48;85.20;97809.72;5268114;28;20319;-58
2022/05/04 02:20:43;;;;;;;11.57;10.77;;;12.60;99.90;;;13.42;86.15;97809.44;5262906;28;20291;-57
2022/05/04 02:23:18;;;;;;;12.63;11.70;;;12.50;99.90;;;13.40;85.92;97811.06;5263521;28;20280;-57
2022/05/04 02:25:51;;;;;;;11.20;10.30;;;12.60;99.90;;;13.41;85.60;97817.94;5261542;28;20569;-58
2022/05/04 02:28:24;;;;;;;11.20;10.27;;;12.50;99.90;;;13.40;85.98;97821.34;5259920;28;20231;-58
2022/05/04 02:30:57;;;;;;;10.82;10.02;;;12.50;99.90;;;13.40;85.38;97818.75;5263534;28;20306;-58
2022/05/04 02:33:30;;;;;;;11.95;10.95;;;12.50;99.90;;;13.45;85.29;97811.28;5262466;28;20557;-58
2022/05/04 02:38:56;;;;;;;12.10;11.18;;;12.50;99.90;;;13.41;85.63;97814.50;5264116;28;20250;-55
2022/05/04 02:41:30;;;;;;;10.88;10.07;;;12.50;99.90;;;13.37;85.31;97825.47;5263756;28;20237;-57
2022/05/04 02:44:03;;;;;;;11.95;10.95;;;12.40;99.90;;;13.39;85.42;97818.69;5265446;28;20306;-57
2022/05/04 02:46:36;;;;;;;11.07;10.15;;;12.40;99.90;;;13.37;86.86;97818.63;5260962;28;20703;-57
2022/05/04 02:49:09;;;;;;;11.88;10.90;;;12.40;99.90;;;13.33;87.15;97818.41;5263570;28;20231;-56
2022/05/04 02:51:42;;;;;;;11.48;10.68;;;12.50;99.90;;;13.32;86.46;97821.78;5260546;28;20292;-57
2022/05/04 02:54:17;;;;;;;11.43;10.52;;;12.50;99.90;;;13.38;86.96;97822.94;5262795;28;20223;-56
2022/05/04 02:56:55;;;;;;;11.48;10.57;;;12.40;99.90;;;13.35;86.57;97821.94;5264832;28;20235;-57
2022/05/04 02:59:29;;;;;;;10.75;9.88;;;12.40;99.90;;;13.38;85.57;97822.94;5258924;28;20278;-58
2022/05/04 03:04:53;;;;;;;10.90;10.10;;;12.40;99.90;;;13.28;86.18;97816.53;5264566;28;20246;-57
2022/05/04 03:07:27;;;;;;;11.02;10.15;;;12.40;99.90;;;13.31;87.04;97823.50;5268182;28;20246;-55
2022/05/04 03:10:02;;;;;;;11.15;10.35;;;12.40;99.90;;;13.36;86.39;97816.84;5267788;28;20257;-55
2022/05/04 03:12:34;;;;;;;11.50;10.60;;;12.40;99.90;;;13.33;86.21;97814.16;5266858;28;20295;-53
2022/05/04 03:15:09;;;;;;;10.88;10.07;;;12.40;99.90;;;13.31;86.97;97818.34;5268259;28;20685;-56
2022/05/04 03:17:42;;;;;;;11.25;10.35;;;12.40;99.90;;;13.28;87.01;97819.09;5266368;28;20654;-57
2022/05/04 03:20:15;;;;;;;10.57;9.88;;;12.40;99.90;;;13.33;85.86;97814.16;5268208;28;20199;-56
2022/05/04 03:22:48;;;;;;;11.35;10.40;;;12.40;99.90;;;13.30;86.71;97814.00;5265692;28;20227;-57
2022/05/04 03:25:23;;;;;;;12.48;11.40;;;12.40;99.90;;;13.32;85.96;97817.53;5267717;28;20235;-58
2022/05/04 03:27:56;;;;;;;12.63;11.57;;;12.40;99.90;;;13.24;86.65;97816.28;5259591;28;20432;-57
2022/05/04 03:30:29;;;;;;;11.27;10.43;;;12.40;99.90;;;13.21;86.75;97813.56;5267768;28;22449;-55
2022/05/04 03:33:02;;;;;;;11.68;10.88;;;12.30;99.90;;;13.14;86.21;97812.41;5266720;28;20243;-57
2022/05/04 03:35:35;;;;;;;11.30;10.40;;;12.20;99.90;;;13.15;86.90;97824.44;5267812;28;20196;-57
2022/05/04 03:38:08;;;;;;;11.38;10.50;;;12.20;99.90;;;13.17;86.81;97814.25;5268779;28;20259;-57
2022/05/04 03:40:43;;;;;;;11.32;10.52;;;12.20;99.90;;;13.16;86.28;97823.63;5267974;28;20237;-58
2022/05/04 03:43:16;;;;;;;11.15;10.35;;;12.30;99.90;;;13.13;86.17;97820.03;5265977;28;20291;-57
2022/05/04 03:45:49;;;;;;;11.77;10.68;;;12.20;99.90;;;13.09;86.78;97819.00;5268066;28;20249;-57
2022/05/04 03:48:22;;;;;;;13.07;12.07;;;12.20;99.90;;;13.11;86.34;97811.41;5267868;28;20249;-58
2022/05/04 03:50:55;;;;;;;12.35;11.23;;;12.20;99.90;;;13.10;87.08;97819.88;5268247;28;20283;-57
2022/05/04 03:53:29;;;;;;;12.27;11.23;;;12.20;99.90;;;13.11;86.72;97816.53;5266877;28;20304;-58
2022/05/04 03:56:04;;;;;;;12.02;10.95;;;12.20;99.90;;;13.12;86.38;97823.41;5265956;28;20307;-56
2022/05/04 03:58:38;;;;;;;13.35;12.25;;;12.20;99.90;;;13.05;87.07;97818.00;5267013;28;20255;-57
2022/05/04 04:01:11;;;;;;;12.32;11.23;;;12.20;99.90;;;12.98;87.51;97817.63;5260877;28;20192;-57
2022/05/04 04:03:44;;;;;;;12.55;11.55;;;12.10;99.90;;;12.94;87.29;97816.63;5265571;28;20705;-58
2022/05/04 04:06:17;;;;;;;11.68;10.77;;;12.10;99.90;;;12.98;87.16;97820.19;5266070;28;20299;-57
2022/05/04 04:08:53;;;;;;;11.98;11.07;;;12.10;99.90;;;13.05;86.43;97823.13;5265437;28;20283;-58
2022/05/04 04:11:29;;;;;;;12.45;11.45;;;12.10;99.90;;;13.04;86.44;97815.34;5262819;28;20298;-57
2022/05/04 04:14:02;;;;;;;11.95;11.05;;;12.10;99.90;;;13.06;87.60;97822.31;5267825;28;20202;-57
2022/05/04 04:16:35;;;;;;;12.45;11.38;;;12.20;99.90;;;13.10;87.09;97820.75;5259433;28;20759;-57
2022/05/04 04:19:09;;;;;;;11.68;10.68;;;12.20;99.90;;;12.96;86.80;97826.94;5259602;28;20672;-57
2022/05/04 04:21:50;;;;;;;12.57;11.57;;;12.10;99.90;;;12.88;86.23;97826.59;5260491;28;20204;-56
2022/05/04 04:24:24;;;;;;;12.88;11.77;;;12.00;99.90;;;12.87;86.99;97829.06;5252088;28;20357;-55
2022/05/04 04:26:59;;;;;;;12.07;11.13;;;12.00;99.90;;;12.87;87.29;97829.94;5266624;28;20313;-58
2022/05/04 04:29:32;;;;;;;12.27;11.27;;;12.00;99.90;;;12.87;87.50;97835.06;5263495;28;20342;-54
2022/05/04 04:32:07;;;;;;;12.52;11.43;;;12.00;99.90;;;12.90;88.06;97842.91;5266321;28;20303;-57
2022/05/04 04:34:40;;;;;;;13.35;12.25;;;12.10;99.90;;;12.91;88.65;97844.69;5264652;28;20265;-57
2022/05/04 04:37:13;;;;;;;12.70;11.52;;;12.20;99.90;;;12.93;87.34;97844.75;5265635;28;20744;-56
2022/05/04 04:39:46;;;;;;;11.85;10.82;;;12.10;99.90;;;12.89;87.75;97846.28;5266010;28;20306;-56
2022/05/04 04:42:21;;;;;;;11.77;10.77;;;12.00;99.90;;;12.83;88.25;97840.88;5263060;28;20219;-56
2022/05/04 04:44:54;;;;;;;12.57;11.57;;;11.90;99.90;;;12.80;88.76;97845.88;5265873;28;20219;-56
2022/05/04 04:47:27;;;;;;;11.80;10.90;;;11.90;99.90;;;12.78;89.33;97843.22;5266315;28;20307;-52
2022/05/04 04:50:00;;;;;;;12.25;11.25;;;11.90;99.90;;;12.81;88.85;97843.34;5264384;28;20192;-55
2022/05/04 04:52:33;;;;;;;12.48;11.43;;;12.00;99.90;;;12.91;88.52;97843.81;5264193;28;20196;-53
2022/05/04 04:55:08;;;;;;;11.77;10.88;;;12.10;99.90;;;12.95;89.27;97836.31;5264571;28;20242;-57
2022/05/04 04:57:43;;;;;;;11.85;10.95;;;12.10;99.90;;;13.01;88.41;97840.88;5266809;28;20298;-51
2022/05/04 05:00:17;;;;;;;12.23;11.10;;;12.20;99.90;;;13.00;87.66;97847.69;5265622;28;20243;-53
2022/05/04 05:02:50;;;;;;;12.38;11.35;;;12.20;99.90;;;13.00;87.60;97850.25;5268167;28;20231;-52
2022/05/04 05:05:24;;;;;;;12.82;11.85;;;12.10;99.90;;;12.96;87.37;97852.59;5261672;28;20551;-53
2022/05/04 05:07:57;;;;;;;12.63;11.40;;;12.10;99.90;;;12.88;87.54;97854.81;5267265;28;20314;-55
2022/05/04 05:10:30;;;;;;;12.38;11.27;;;12.00;99.90;;;12.90;87.81;97853.19;5270122;28;20604;-54
2022/05/04 05:13:05;;;;;;;12.20;11.20;;;12.10;99.90;;;13.01;87.67;97846.88;5261283;28;20228;-55
2022/05/04 05:18:30;;;;;;;11.85;10.90;;;12.30;99.90;;;13.15;87.54;97856.91;5260005;28;20227;-56
2022/05/04 05:21:04;;;;;;;12.15;11.15;;;12.30;99.90;;;13.21;86.87;97854.63;5261530;28;20287;-53
2022/05/04 05:23:37;;;;;;;12.10;11.00;;;12.40;99.90;;;13.35;86.30;97850.16;5261015;28;20253;-56
2022/05/04 05:26:10;;;;;;;11.10;10.15;;;12.50;99.90;;;13.45;84.72;97848.09;5265871;28;20259;-52
2022/05/04 05:28:44;;;;;;;12.48;11.48;;;12.60;99.90;;;13.61;85.27;97846.22;5261397;28;20219;-55
2022/05/04 05:31:17;;;;;;;12.23;11.27;;;12.70;99.90;;;13.69;84.41;97850.88;5266560;28;20287;-56
2022/05/04 05:33:50;;;;;;;12.57;11.57;;;12.90;99.90;;;13.76;84.25;97849.44;5262508;28;20675;-55
2022/05/04 05:36:23;;;;;;;12.65;11.75;;;13.00;99.90;;;13.77;83.29;97856.38;5265396;28;20307;-53
2022/05/04 05:38:57;;;;;;;12.52;11.52;;;13.00;99.90;;;13.91;83.49;97850.16;5260019;28;20314;-55
2022/05/04 05:41:31;;;;;;;12.40;11.50;;;13.10;99.90;;;13.87;83.04;97855.06;5263420;28;20295;-54
2022/05/04 05:44:05;;;;;;;11.55;10.55;;;13.10;99.90;;;14.01;83.22;97855.69;5265743;28;20279;-53
2022/05/04 05:46:38;;;;;;;11.48;10.57;;;13.20;99.90;;;14.13;82.42;97854.50;5263111;28;20300;-53
2022/05/04 05:49:11;;;;;;;11.30;10.38;;;13.30;99.90;;;14.28;81.28;97858.53;5265476;28;20192;-54
2022/05/04 05:51:45;;;;;;;11.18;10.18;;;13.50;99.90;;;14.39;81.85;97853.06;5264517;28;20621;-53
2022/05/04 05:54:18;;;;;;;11.40;10.48;;;13.50;99.90;;;14.46;81.36;97854.19;5265117;28;20295;-56
2022/05/04 05:56:51;;;;;;;10.63;9.82;;;13.60;99.90;;;14.42;79.47;97858.34;5268869;28;20334;-53
2022/05/04 05:59:25;;;;;;;10.93;10.13;;;13.60;99.90;;;14.47;78.40;97855.94;5265135;28;20236;-56
2022/05/04 06:01:58;;;;;;;11.30;10.30;;;13.60;99.90;;;14.52;78.10;97853.59;5261797;28;20245;-57
2022/05/04 06:04:31;;;;;;;10.88;9.98;;;13.70;99.90;;;14.58;77.85;97854.72;5263375;28;20231;-55
2022/05/04 06:07:06;;;;;;;10.50;9.48;;;13.70;99.90;;;14.74;77.67;97861.38;5264613;28;20220;-57
2022/05/04 06:09:39;;;;;;;10.20;9.30;;;13.90;99.90;;;14.75;75.82;97858.00;5260408;28;20242;-57
2022/05/04 06:12:12;;;;;;;10.13;9.27;;;13.90;99.90;;;14.94;76.37;97863.91;5266984;28;20196;-54
2022/05/04 06:14:47;;;;;;;9.90;9.00;;;14.00;99.90;;;14.86;73.72;97861.88;5266747;28;20199;-57
2022/05/04 06:17:20;;;;;;;9.32;8.63;;;14.00;99.90;;;15.12;73.88;97863.75;5265038;28;20305;-52
2022/05/04 06:19:53;;;;;;;8.80;8.00;;;14.10;99.90;;;15.35;72.09;97867.19;5266988;28;20306;-52
2022/05/04 06:22:27;;;;;;;8.35;7.65;;;14.30;99.90;;;15.57;71.51;97864.63;5266842;28;20246;-55
2022/05/04 06:25:00;;;;;;;9.25;8.38;;;14.50;99.90;;;15.77;70.96;97871.41;5263034;28;20356;-57
2022/05/04 06:27:33;;;;;;;8.95;8.23;;;14.70;99.90;;;15.89;70.88;97873.56;5262718;28;20254;-55
2022/05/04 06:35:51;;;;;;;8.85;8.07;;;15.00;99.90;;;16.35;68.41;97858.84;5261302;28;20284;-53
2022/05/04 06:38:24;;;;;;;9.32;8.63;;;15.20;99.90;;;16.50;67.79;97859.34;5265490;28;20227;-54
2022/05/04 06:40:58;;;;;;;9.45;8.55;;;15.30;99.90;;;16.50;67.66;97864.50;5264924;28;20251;-53
2022/05/04 06:43:32;;;;;;;8.85;8.15;;;15.40;99.90;;;16.74;67.06;97863.56;5266525;28;20224;-55
2022/05/04 06:46:06;;;;;;;8.90;8.20;;;15.40;99.90;;;16.80;66.69;97858.66;5261506;28;20319;-52
2022/05/04 06:48:40;;;;;;;7.90;7.20;;;15.60;99.90;;;16.90;65.58;97865.88;5259268;28;20198;-55
2022/05/04 06:51:13;;;;;;;8.00;7.40;;;15.60;99.90;;;17.06;64.67;97868.13;5266005;28;20256;-52
2022/05/04 06:53:46;;;;;;;8.32;7.63;;;15.80;99.90;;;17.19;64.41;97869.38;5265963;28;20606;-52
2022/05/04 06:56:39;;;;;;;8.45;7.85;;;15.90;99.90;;;17.35;64.53;97875.91;5264512;28;20594;-53
2022/05/04 06:59:12;;;;;;;8.20;7.55;;;16.10;99.90;;;17.48;63.75;97872.88;5261526;28;20281;-53
2022/05/04 07:01:51;;;;;;;7.70;7.10;;;16.10;99.90;;;17.50;64.44;97873.75;5263728;28;20218;-52
2022/05/04 07:04:24;;;;;;;7.63;7.00;;;16.10;99.90;;;17.52;62.93;97868.66;5266954;28;20230;-53
2022/05/04 07:06:58;;;;;;;7.28;6.78;;;16.20;99.90;;;17.61;62.26;97868.91;5266412;28;20310;-53
2022/05/04 07:09:31;;;;;;;7.85;7.13;;;16.10;99.90;;;17.65;62.43;97872.47;5267104;28;20295;-57
2022/05/04 07:12:05;;;;;;;7.82;7.13;;;16.20;99.90;;;17.67;62.77;97868.22;5265809;28;20196;-56
2022/05/04 07:14:39;;;;;;;7.40;6.80;;;16.30;99.90;;;17.73;62.44;97863.22;5259417;28;20278;-56
2022/05/04 07:17:13;;;;;;;7.10;6.50;;;16.40;99.90;;;17.77;61.52;97860.78;5263323;28;20263;-53
2022/05/04 07:19:47;;;;;;;6.97;6.47;;;16.50;99.90;;;17.84;61.43;97866.16;5266904;28;20210;-53
2022/05/04 07:22:21;;;;;;;7.30;6.65;;;16.50;99.90;;;17.89;61.52;97854.25;5262352;28;20203;-53
2022/05/04 07:24:54;;;;;;;7.00;6.50;;;16.50;99.90;;;17.92;61.19;97862.09;5261020;28;20682;-54
2022/05/04 07:27:27;;;;;;;6.85;6.28;;;16.50;99.90;;;17.89;61.02;97865.47;5266922;28;20212;-52
2022/05/04 07:30:01;;;;;;;6.95;6.45;;;16.50;99.90;;;17.86;61.35;97867.09;5255057;28;20228;-53
2022/05/04 07:32:36;;;;;;;6.38;5.88;;;16.60;99.90;;;17.89;61.65;97865.47;5264926;28;20237;-57
2022/05/04 07:35:09;;;;;;;6.88;6.28;;;16.70;99.90;;;17.94;61.38;97866.47;5266003;28;20662;-56
2022/05/04 07:37:42;;;;;;;7.05;6.45;;;16.60;99.90;;;18.04;61.70;97866.72;5266524;28;20373;-56
2022/05/04 07:43:06;;;;;;;7.00;6.50;;;16.70;99.90;;;18.15;61.00;97873.06;5265949;28;20246;-53
2022/05/04 07:45:39;;;;;;;6.55;5.95;;;16.60;99.90;;;18.05;61.56;97876.22;5260973;28;20288;-56
2022/05/04 07:48:13;;;;;;;6.38;5.97;;;16.60;99.90;;;17.91;61.29;97874.16;5252644;28;20210;-55
2022/05/04 07:50:47;;;;;;;7.05;6.47;;;16.40;99.90;;;17.85;62.22;97876.53;5266884;28;20234;-54
2022/05/04 07:53:20;;;;;;;7.35;6.75;;;16.40;99.90;;;17.82;62.54;97878.16;5270255;28;20200;-56
2022/05/04 07:55:53;;;;;;;7.68;7.03;;;16.30;99.90;;;17.59;63.80;97890.38;5270298;28;20283;-54
2022/05/04 07:58:26;;;;;;;7.32;6.82;;;16.30;99.90;;;17.47;65.12;97886.59;5269212;28;20283;-54
2022/05/04 08:06:42;;;;;;;7.90;7.30;;;16.00;99.90;;;17.33;67.73;97898.22;5262886;28;20864;-54
2022/05/04 08:09:15;;;;;;;8.85;8.05;;;16.00;99.90;;;17.36;67.51;97893.13;5270138;28;20287;-54
2022/05/04 08:11:48;;;;;;;8.82;7.93;;;16.10;99.90;;;17.53;67.14;97898.81;5270197;28;20241;-58
2022/05/04 08:14:23;;;;;;;8.95;8.25;;;16.20;99.90;;;17.48;67.18;97896.13;5263318;28;20721;-53
2022/05/04 08:16:56;;;;;;;9.20;8.40;;;16.20;99.90;;;17.46;66.97;97902.94;5270618;28;20251;-58
2022/05/04 08:19:31;;;;;;;9.00;8.25;;;16.20;99.90;;;17.58;65.79;97899.84;5269851;28;20283;-57
2022/05/04 08:22:04;;;;;;;8.30;7.60;;;16.30;99.90;;;17.64;66.03;97899.16;5263389;28;20291;-57
2022/05/04 08:24:38;;;;;;;8.32;7.65;;;16.40;99.90;;;17.85;65.58;97904.97;5261267;28;20204;-57
2022/05/04 08:27:11;;;;;;;8.23;7.43;;;16.50;99.90;;;17.91;65.06;97900.00;5260699;28;20311;-56
2022/05/04 08:29:44;;;;;;;8.63;7.95;;;16.70;99.90;;;18.13;64.41;97898.00;5261296;28;20743;-58
2022/05/04 08:32:18;;;;;;;8.50;7.70;;;17.00;99.90;;;18.17;65.45;97894.66;5267292;28;20239;-58
2022/05/04 08:34:52;;;;;;;7.10;6.50;;;17.30;99.90;;;18.73;64.19;97887.53;5269816;28;20200;-57
2022/05/04 08:37:29;;;;;;;7.40;6.80;;;17.90;99.90;;;18.95;62.84;97890.72;5269703;28;20215;-58
2022/05/04 08:40:03;;;;;;;7.03;6.32;;;18.20;99.90;;;19.20;59.14;97893.06;5269476;28;20251;-58
2022/05/04 08:42:40;;;;;;;6.70;6.10;;;18.20;99.90;;;19.65;57.72;97896.63;5268625;28;20230;-57
2022/05/04 08:45:14;;;;;;;7.20;6.70;;;18.70;99.90;;;20.08;56.37;97890.66;5269118;28;20262;-58
2022/05/04 08:47:48;;;;;;;7.28;6.75;;;19.00;99.90;;;20.29;55.68;97897.09;5269142;28;20215;-58
2022/05/04 08:50:23;;;;;;;6.10;5.65;;;19.20;99.90;;;20.29;56.30;97892.81;5269324;28;20250;-57
2022/05/04 08:52:56;;;;;;;6.75;6.15;;;19.20;99.90;;;20.22;56.82;97885.72;5268996;28;20298;-56
2022/05/04 08:55:30;;;;;;;6.60;6.00;;;19.60;99.90;;;20.43;56.09;97885.25;5269335;28;20699;-58
2022/05/04 08:58:03;;;;;;;6.47;5.90;;;19.60;99.80;;;20.61;56.51;97884.78;5262557;28;20220;-57
2022/05/04 09:00:37;;;;;;;6.93;6.28;;;19.80;99.90;;;20.50;57.65;97881.06;5264228;28;20307;-58
2022/05/04 09:03:10;;;;;;;6.03;5.53;;;19.90;99.90;;;20.62;55.18;97882.19;5266299;28;20208;-59
2022/05/04 09:05:48;;;;;;;5.78;5.32;;;19.80;99.00;;;20.74;54.63;97888.44;5263921;28;20294;-58
2022/05/04 09:09:03;;;;;;;5.78;5.38;;;20.00;98.70;;;21.03;53.52;97884.63;5256489;28;20573;-58
2022/05/04 09:11:38;;;;;;;5.78;5.38;;;20.30;98.00;;;21.21;52.59;97891.84;5260254;28;20234;-58
2022/05/04 09:14:13;;;;;;;5.70;5.30;;;20.40;97.10;;;21.29;50.32;97886.72;5268859;28;20690;-58
2022/05/04 09:16:47;;;;;;;5.18;4.72;;;20.40;96.10;;;21.29;51.51;97891.94;5268388;28;20323;-58
2022/05/04 09:19:21;;;;;;;5.70;5.30;;;20.30;96.90;;;21.25;49.81;97897.94;5268842;28;20656;-58
2022/05/04 09:21:55;;;;;;;5.32;4.82;;;20.00;96.00;;;21.02;51.02;97892.38;5259769;28;20612;-58
2022/05/04 09:24:30;;;;;;;4.72;4.32;;;20.00;96.30;;;21.04;49.62;97888.97;5268032;28;20636;-54
2022/05/04 09:27:05;;;;;;;5.15;4.75;;;19.80;95.50;;;20.98;50.43;97890.59;5264054;28;20273;-57
2022/05/04 09:29:42;;;;;;;5.00;4.60;;;19.80;96.30;;;20.96;51.44;97872.38;5264678;28;20227;-57
2022/05/04 09:32:16;;;;;;;16.10;10.73;;;19.90;96.80;;;21.45;52.09;97875.75;5267161;28;20231;-56
2022/05/04 09:34:56;;;;;;;5.20;4.80;;;20.30;97.10;;;21.38;49.49;97873.94;5267122;28;20579;-57
2022/05/04 09:46:11;;;;;;;5.03;4.72;;;19.80;97.20;;;20.60;53.48;97863.13;5269204;28;20671;-58
2022/05/04 09:48:44;;;;;;;5.50;5.00;;;19.40;98.20;;;20.61;53.53;97864.88;5268379;28;20231;-56
2022/05/04 09:51:17;;;;;;;5.53;5.00;;;19.30;97.90;;;20.27;54.29;97858.16;5266189;28;20639;-57
2022/05/04 09:53:52;;;;;;;4.72;4.32;;;19.10;98.40;;;20.28;54.08;97856.44;5260359;28;20696;-56
2022/05/04 09:56:25;;;;;;;6.30;5.78;;;19.00;98.70;;;20.23;54.73;97862.41;5262096;28;20258;-57
2022/05/04 09:58:58;;;;;;;5.80;5.35;;;18.90;98.90;;;20.34;54.34;97865.19;5263175;28;20257;-53
2022/05/04 10:01:31;;;;;;;4.95;4.50;;;18.80;99.20;;;20.19;54.81;97863.19;5264165;28;20247;-56
2022/05/04 10:04:05;;;;;;;5.60;5.20;;;18.80;99.50;;;20.13;55.35;97864.81;5261766;28;20222;-53
2022/05/04 10:06:39;;;;;;;5.40;5.00;;;18.70;99.80;;;20.08;55.31;97867.28;5257300;28;20770;-54
2022/05/04 10:09:14;;;;;;;5.38;4.97;;;18.70;99.90;;;20.02;55.21;97862.84;5263259;28;20732;-56
2022/05/04 10:11:47;;;;;;;5.68;5.28;;;18.60;99.70;;;19.99;55.41;97870.59;5261497;28;20722;-55
2022/05/04 10:14:21;;;;;;;5.72;5.22;;;18.60;99.70;;;19.93;56.39;97879.97;5263216;28;20295;-55
2022/05/04 10:17:01;;;;;;;5.65;5.15;;;18.60;99.90;;;19.89;57.19;97873.00;5261660;28;20320;-57
2022/05/04 10:19:44;;;;;;;5.55;5.00;;;18.60;99.90;;;19.84;56.92;97872.88;5264930;28;20253;-56
2022/05/04 10:22:26;;;;;;;4.95;4.57;;;18.60;99.90;;;19.90;55.19;97866.94;5263162;28;20247;-57
2022/05/04 10:25:03;;;;;;;4.90;4.60;;;18.70;99.20;;;19.86;55.34;97854.72;5264489;28;20951;-55
2022/05/04 10:27:41;;;;;;;5.00;4.70;;;18.80;99.10;;;20.18;55.03;97856.25;5257240;28;20767;-53
2022/05/04 10:30:34;;;;;;;4.88;4.47;;;19.10;98.70;;;20.41;53.71;97846.28;5265777;28;20290;-57
2022/05/04 10:33:09;;;;;;;5.80;5.40;;;19.50;97.80;;;20.75;53.09;97854.72;5262347;28;20273;-54
2022/05/04 10:35:44;;;;;;;5.18;4.78;;;19.90;97.50;;;21.01;51.95;97854.25;5265016;28;20227;-55
2022/05/04 10:38:21;;;;;;;5.05;4.65;;;20.20;96.60;;;21.38;49.95;97849.66;5261389;28;20246;-57
2022/05/04 10:40:59;;;;;;;5.47;5.07;;;20.20;95.80;;;21.47;49.11;97855.84;5264183;28;20667;-57
2022/05/04 10:43:38;;;;;;;5.18;4.80;;;20.20;95.40;;;21.45;49.22;97852.34;5258180;28;20274;-56
2022/05/04 10:46:16;;;;;;;5.35;5.00;;;20.10;95.30;;;21.45;49.13;97857.53;5267291;28;20659;-56
2022/05/04 10:48:52;;;;;;;6.07;5.68;;;20.10;95.40;;;21.49;48.62;97848.94;5262056;28;20200;-55
2022/05/04 10:51:29;;;;;;;5.82;5.43;;;19.90;95.20;;;21.47;48.92;97842.84;5267236;28;20286;-56
2022/05/04 10:54:07;;;;;;;5.68;5.25;;;20.00;95.70;;;21.38;49.13;97853.13;5266451;28;20629;-56
2022/05/04 10:56:46;;;;;;;5.53;5.07;;;19.90;95.70;;;21.13;50.91;97847.50;5267244;28;20635;-58
2022/05/04 10:59:25;;;;;;;6.60;6.00;;;19.70;96.90;;;21.01;51.74;97844.75;5267454;28;20282;-57
2022/05/04 11:02:04;;;;;;;6.63;6.13;;;19.60;97.20;;;20.99;52.88;97846.44;5265554;28;20203;-57
2022/05/04 11:04:38;;;;;;;7.00;6.45;;;19.60;97.90;;;20.99;53.93;97846.44;5261212;28;20288;-56
2022/05/04 11:07:13;;;;;;;8.18;7.47;;;19.50;98.80;;;20.91;54.48;97854.09;5267255;28;20601;-55
2022/05/04 11:09:48;;;;;;;8.43;7.72;;;19.60;99.10;;;20.74;56.11;97839.97;5263343;28;20283;-57
2022/05/04 11:12:23;;;;;;;7.95;7.32;;;19.40;99.90;;;20.68;57.13;97845.91;5264234;28;20198;-57
2022/05/04 11:14:57;;;;;;;8.18;7.47;;;19.30;99.90;;;20.60;58.08;97847.53;5267505;28;20257;-57
2022/05/04 11:17:33;;;;;;;8.77;8.00;;;19.30;99.90;;;20.65;56.83;97845.88;5261146;28;20216;-56